• Join FlightAware (Why Join?)
  • Login
  • US Flag 
02:40AM EST


 

Airport Tracker/Info


-or-


 

Live Flight TrackerFlight Track Log ✈ N860BA ✈ 11-May-2013 ✈ KACK - KTEB

Flight Track Log - Related Links

Times and Time Zones

All times are in EDT time to prevent confusion due to time zone crossing. See the N860BA flight status page for this flight to view local times or setup timezone preferences in your user account.

Time Position Orientation Groundspeed Altitude Reporting Facility
EDT Latitude Longitude Course Direction KTS MPH feet Rate Location/Type
03:08PM 41.2853 -70.1556 320° Northwest 197 227 6,500  Level Boston Center
03:09PM 41.3181 -70.2289 301° West 218 251 10,600 3,540 Climbing Boston Center
03:10PM 41.3386 -70.3222 286° West 238 274 13,600 2,760 Climbing Boston Center
03:11PM 41.3569 -70.4239 284° West 268 308 16,200 2,460 Climbing Boston Center
03:12PM 41.3833 -70.5751 270° West  Level FlightAware Approximate
03:12PM 41.3844 -70.5642 285° West 305 351 19,600  Level Boston Center
03:13PM 41.4328 -70.7150 293° West 344 396 20,000 120 Climbing Boston Center
03:14PM 41.4781 -70.8275 298° West 391 450 19,900  Descending Boston Center
03:15PM 41.5492 -70.9978 299° West 416 479 20,000  Climbing Boston Center
03:16PM 41.6072 -71.1408 299° West 434 499 20,000  Level Boston Center
03:17PM 41.6672 -71.2814 300° West 434 499 20,000  Level Boston Center
03:18PM 41.7228 -71.4250 297° West 434 499 20,000  Level Boston Center
03:19PM 41.7928 -71.5769 302° West 434 499 20,000 -660 Level Boston Center
03:20PM 41.8728 -71.6983 312° West 434 499 18,700 -1,620 Descending Boston Center
03:21PM 41.9381 -71.8122 308° West 433 498 16,800 -1,500 Descending Boston Center
03:22PM 41.9825 -71.9625 292° West 405 466 15,700 -1,200 Descending Boston Center
03:23PM 42.0144 -72.0936 288° West 384 442 14,400 -840 Descending Boston Center
03:24PM 42.0458 -72.2303 287° West 378 435 14,100 -240 Descending Boston Center
03:25PM 42.0794 -72.3703 288° West 384 442 14,000 -60 Descending Boston Center
03:26PM 42.1128 -72.5128 288° West 394 453 14,000  Level Boston Center
03:27PM 42.1458 -72.6528 288° West 399 459 14,000  Level Boston Center
03:28PM 42.1581 -72.7931 277° West 393 452 14,000  Level Boston Center
03:29PM 42.1494 -72.9161 265° West 377 434 14,000  Level Boston Center
03:30PM 42.1358 -73.1008 264° West 386 444 14,000  Level Boston Center
03:31PM 42.1267 -73.2461 265° West 391 450 14,000  Level Boston Center
03:32PM 42.1153 -73.3806 264° West 381 438 14,000  Level Boston Center
03:33PM 42.1058 -73.4978 264° West 345 397 14,000  Level Boston Center
03:34PM 42.0756 -73.6036 249° West 321 369 14,000  Level Boston Center
03:35PM 42.0411 -73.7008 245° Southwest 315 362 14,000 -300 Level Boston Center
03:36PM 41.9958 -73.8339 245° Southwest 350 403 13,400 -840 Descending Boston Center
03:37PM 41.9611 -73.9422 247° West 356 410 12,400 -1,080 Descending Boston Center
03:38PM 41.9264 -74.0444 245° Southwest 356 410 11,300 -1,920 Descending Boston Center
03:39PM 41.8686 -74.1519 234° Southwest 317 365 8,600 -2,160 Descending Boston Center
03:40PM 41.8178 -74.1978 214° Southwest 271 312 7,000 -780 Descending Boston Center
03:42PM 41.7564 -74.2572 216° Southwest 251 289 7,000  Level Boston Center
03:43PM 41.6886 -74.3250 217° Southwest 250 288 7,000  Level Boston Center
03:44PM 41.6542 -74.3906 235° Southwest 243 280 7,000  Level Boston Center
03:45PM 41.5947 -74.4497 217° Southwest 243 280 7,000 -480 Level Boston Center
03:46PM 41.5397 -74.4897 209° Southwest 252 290 6,100 -600 Descending Boston Center
03:47PM 41.4764 -74.5375 209° Southwest 252 290 5,900 -120 Descending Boston Center
03:48PM 41.4256 -74.5803 212° Southwest 246 283 5,900  Level Boston Center
03:48PM 41.3667 -74.6167 205° Southwest 256 295 5,900  Level New York TRACON
03:49PM 41.3000 -74.6333 191° South 229 264 5,900 -300 Level New York TRACON
03:50PM 41.2500 -74.6500 194° South 187 215 5,300 -840 Descending New York TRACON
03:51PM 41.2000 -74.6667 194° South 175 201 4,300 -660 Descending New York TRACON
03:52PM 41.1333 -74.6833 191° South 222 255 4,000 -360 Descending New York TRACON
03:53PM 41.0833 -74.7000 194° South 223 257 3,600 -540 Descending New York TRACON
03:54PM 41.0167 -74.7167 191° South 209 241 3,000 -300 Descending New York TRACON
03:55PM 40.9667 -74.7333 194° South 218 251 3,000  Level New York TRACON
03:56PM 40.9000 -74.7500 191° South 218 251 3,000  Level New York TRACON
03:57PM 40.8500 -74.7667 194° South 220 253 3,000  Level New York TRACON
03:58PM 40.7833 -74.7833 191° South 219 252 3,000  Level New York TRACON
03:59PM 40.7667 -74.7000 105° East 244 281 3,000  Level New York TRACON